23/11/2018 - State Farm Arena, Atlanta, GA. Temporada Regular

Atlanta Hawks - 96

Boston Celtics - 114

  • Árbitros: Sean Wright,Josh Tiven,Jason Goldenberg
  • Asistencia: 15017 espectadores
  • Duración del partido: 2:17 horas
  • Número de empates durante el partido: 1
  • Cambios de líder: 0 veces

Mejores Valoración

Dobles-Dobles

Tabla estadísticas

Boston Celtics - 114
Jugador Min TC T3 TL +/- rebO rebD reb asis fp rob per tap tr Val ptos
Robert Williams 8:37 2/2 0/0 0/0 -7 0 3 3 0 1 0 0 1 0 8 4
Brad Wanamaker 7:17 1/1 0/0 3/4 -9 0 0 0 1 1 0 1 0 0 4 5
Guerschon Yabusele 2:48 1/3 0/1 0/0 2 0 0 0 1 1 0 0 0 0 1 2
Terry Rozier 25:04 5/11 2/4 0/0 8 0 3 3 3 3 3 1 0 0 14 12
Marcus Morris 24:27 3/10 2/7 0/0 7 0 4 4 2 1 1 1 0 0 7 8
Semi Ojeleye 23:32 3/11 1/5 1/2 11 0 5 5 0 1 0 4 0 0 0 8
Marcus Smart 23:13 1/6 0/3 2/2 15 0 1 1 7 3 3 1 1 0 10 4
Aron Baynes 23:02 5/7 1/1 5/5 16 3 6 9 4 4 0 2 1 0 26 16
Jayson Tatum 22:56 6/11 2/5 0/0 10 1 1 2 2 1 1 0 1 0 15 14
Gordon Hayward 22:03 4/7 1/3 2/2 20 0 5 5 4 2 0 1 2 0 18 11
Jaylen Brown 21:18 4/7 0/3 2/4 2 1 1 2 3 2 2 2 0 0 10 10
Kyrie Irving 19:48 4/11 3/7 2/2 9 1 3 4 3 3 1 2 0 0 12 13
Daniel Theis 15:54 3/4 1/1 0/0 6 1 4 5 1 6 0 1 1 0 12 7
Total / / / 90 137
Atlanta Hawks - 96
Jugador Min TC T3 TL +/- rebO rebD reb asis fp rob per tap tr Val ptos
Omari Spellman 7:46 0/1 0/1 0/0 -21 1 0 1 0 0 0 1 0 0 -1 0
Miles Plumlee 4:03 0/0 0/0 0/0 -2 0 0 0 0 1 0 0 0 0 0 0
Jeremy Lin 30:06 6/10 2/4 5/7 15 0 5 5 10 3 3 1 0 0 30 19
John Collins 30:03 7/8 0/0 2/4 -11 1 6 7 1 4 0 5 0 0 16 16
DeAndre Bembry 25:57 5/13 1/6 3/4 9 1 6 7 4 1 2 4 4 0 18 14
Dewayne Dedmon 24:21 3/8 1/4 0/0 -38 0 7 7 0 0 0 0 1 0 10 7
Kevin Huerter 23:11 2/5 0/3 0/0 -26 1 2 3 3 4 0 0 1 0 8 4
Alex Len 19:37 5/7 2/3 5/8 22 1 1 2 0 2 0 3 0 0 11 17
Trae Young 19:26 2/7 0/5 1/1 -35 0 0 0 2 0 0 3 1 0 0 5
Taurean Prince 17:41 0/7 0/4 2/2 -24 0 2 2 1 4 1 1 0 0 -2 2
Justin Anderson 17:26 5/10 0/3 2/3 12 0 2 2 0 3 1 1 0 0 8 12
Kent Bazemore 10:11 0/2 0/1 0/0 -5 0 2 2 1 1 1 0 0 0 2 0
Vince Carter 10:11 0/3 0/1 0/0 14 0 2 2 0 3 1 1 0 0 -1 0
Total / / / -90 99



temporada 201819

Calendario por equipos

Selecciona equipo NBA y tipo partidos

enfrentamientos equipos

Selecciona enfrentamiento equipos NBA